sensor_id;sensor_type;location;lat;lon;timestamp;pressure;altitude;pressure_sealevel;temperature;humidity
72423;BME280;71399;54.146;38.734;2023-07-29T00:01:34;96885.50;;;18.33;100.00
72423;BME280;71399;54.146;38.734;2023-07-29T00:04:01;96888.06;;;18.29;100.00
72423;BME280;71399;54.146;38.734;2023-07-29T00:06:27;96865.97;;;18.13;100.00
72423;BME280;71399;54.146;38.734;2023-07-29T00:08:54;96877.66;;;18.24;100.00
72423;BME280;71399;54.146;38.734;2023-07-29T00:11:20;96874.53;;;18.22;100.00
72423;BME280;71399;54.146;38.734;2023-07-29T00:13:46;96897.84;;;18.25;100.00
72423;BME280;71399;54.146;38.734;2023-07-29T00:16:13;96894.34;;;18.21;100.00
72423;BME280;71399;54.146;38.734;2023-07-29T00:18:41;96886.25;;;18.18;100.00
72423;BME280;71399;54.146;38.734;2023-07-29T00:21:07;96890.13;;;18.20;100.00
72423;BME280;71399;54.146;38.734;2023-07-29T00:23:34;96867.31;;;18.07;100.00
72423;BME280;71399;54.146;38.734;2023-07-29T00:26:00;96869.03;;;18.15;100.00
72423;BME280;71399;54.146;38.734;2023-07-29T00:28:26;96843.50;;;18.14;100.00
72423;BME280;71399;54.146;38.734;2023-07-29T00:30:52;96819.00;;;18.08;100.00
72423;BME280;71399;54.146;38.734;2023-07-29T00:33:20;96792.34;;;18.08;100.00
72423;BME280;71399;54.146;38.734;2023-07-29T00:35:46;96782.53;;;18.12;100.00
72423;BME280;71399;54.146;38.734;2023-07-29T00:38:12;96758.38;;;18.05;100.00
72423;BME280;71399;54.146;38.734;2023-07-29T00:40:39;96767.59;;;18.08;100.00
72423;BME280;71399;54.146;38.734;2023-07-29T00:43:05;96752.28;;;18.05;100.00
72423;BME280;71399;54.146;38.734;2023-07-29T00:45:32;96733.34;;;17.94;100.00
72423;BME280;71399;54.146;38.734;2023-07-29T00:47:59;96718.50;;;17.93;100.00
72423;BME280;71399;54.146;38.734;2023-07-29T00:50:26;96699.31;;;17.87;100.00
72423;BME280;71399;54.146;38.734;2023-07-29T00:52:54;96677.56;;;17.85;100.00
72423;BME280;71399;54.146;38.734;2023-07-29T00:55:23;96678.31;;;17.86;100.00
72423;BME280;71399;54.146;38.734;2023-07-29T00:57:50;96656.94;;;17.82;100.00
72423;BME280;71399;54.146;38.734;2023-07-29T01:00:19;96618.53;;;17.83;100.00
72423;BME280;71399;54.146;38.734;2023-07-29T01:02:45;96644.28;;;17.79;100.00
72423;BME280;71399;54.146;38.734;2023-07-29T01:05:14;96655.41;;;17.81;100.00
72423;BME280;71399;54.146;38.734;2023-07-29T01:13:23;96632.94;;;17.82;100.00
72423;BME280;71399;54.146;38.734;2023-07-29T01:15:58;96588.34;;;17.79;100.00
72423;BME280;71399;54.146;38.734;2023-07-29T01:18:29;96573.25;;;17.67;100.00
72423;BME280;71399;54.146;38.734;2023-07-29T01:21:03;96587.28;;;17.64;100.00
72423;BME280;71399;54.146;38.734;2023-07-29T01:23:39;96588.88;;;17.69;100.00
72423;BME280;71399;54.146;38.734;2023-07-29T01:26:05;96572.25;;;17.56;100.00
72423;BME280;71399;54.146;38.734;2023-07-29T01:28:33;96573.88;;;17.60;100.00
72423;BME280;71399;54.146;38.734;2023-07-29T01:31:07;96560.47;;;17.57;100.00
72423;BME280;71399;54.146;38.734;2023-07-29T01:33:42;96550.44;;;17.50;100.00
72423;BME280;71399;54.146;38.734;2023-07-29T01:36:20;96551.13;;;17.47;100.00
72423;BME280;71399;54.146;38.734;2023-07-29T01:38:49;96570.56;;;17.48;100.00
72423;BME280;71399;54.146;38.734;2023-07-29T01:41:17;96566.34;;;17.47;100.00
72423;BME280;71399;54.146;38.734;2023-07-29T01:43:45;96547.63;;;17.43;100.00
72423;BME280;71399;54.146;38.734;2023-07-29T01:46:15;96598.38;;;17.50;100.00
72423;BME280;71399;54.146;38.734;2023-07-29T01:48:42;96596.50;;;17.51;100.00
72423;BME280;71399;54.146;38.734;2023-07-29T01:51:11;96593.22;;;17.57;100.00
72423;BME280;71399;54.146;38.734;2023-07-29T01:53:37;96594.06;;;17.62;100.00
72423;BME280;71399;54.146;38.734;2023-07-29T01:56:03;96589.44;;;17.58;100.00
72423;BME280;71399;54.146;38.734;2023-07-29T01:58:30;96595.97;;;17.61;100.00
72423;BME280;71399;54.146;38.734;2023-07-29T02:00:56;96592.84;;;17.59;100.00
72423;BME280;71399;54.146;38.734;2023-07-29T02:03:23;96592.84;;;17.59;100.00
72423;BME280;71399;54.146;38.734;2023-07-29T02:05:49;96601.38;;;17.65;100.00
72423;BME280;71399;54.146;38.734;2023-07-29T02:08:16;96592.63;;;17.64;100.00
72423;BME280;71399;54.146;38.734;2023-07-29T02:10:42;96609.69;;;17.63;100.00
72423;BME280;71399;54.146;38.734;2023-07-29T02:13:11;96614.25;;;17.63;100.00
72423;BME280;71399;54.146;38.734;2023-07-29T02:15:38;96597.84;;;17.60;100.00
72423;BME280;71399;54.146;38.734;2023-07-29T02:18:04;96592.09;;;17.58;100.00
72423;BME280;71399;54.146;38.734;2023-07-29T02:20:32;96591.41;;;17.62;100.00
72423;BME280;71399;54.146;38.734;2023-07-29T02:22:58;96599.66;;;17.56;100.00
72423;BME280;71399;54.146;38.734;2023-07-29T02:25:25;96615.72;;;17.60;100.00
72423;BME280;71399;54.146;38.734;2023-07-29T02:27:51;96601.72;;;17.63;100.00
72423;BME280;71399;54.146;38.734;2023-07-29T02:30:17;96596.72;;;17.62;100.00
72423;BME280;71399;54.146;38.734;2023-07-29T02:32:43;96597.16;;;17.64;100.00
72423;BME280;71399;54.146;38.734;2023-07-29T02:35:09;96613.13;;;17.64;100.00
72423;BME280;71399;54.146;38.734;2023-07-29T02:37:36;96613.75;;;17.57;100.00
72423;BME280;71399;54.146;38.734;2023-07-29T02:40:02;96624.47;;;17.60;100.00
72423;BME280;71399;54.146;38.734;2023-07-29T02:42:29;96622.88;;;17.56;100.00
72423;BME280;71399;54.146;38.734;2023-07-29T02:44:56;96601.91;;;17.54;100.00
72423;BME280;71399;54.146;38.734;2023-07-29T02:47:22;96603.44;;;17.55;100.00
72423;BME280;71399;54.146;38.734;2023-07-29T02:49:48;96607.91;;;17.51;100.00
72423;BME280;71399;54.146;38.734;2023-07-29T02:52:14;96592.28;;;17.50;100.00
72423;BME280;71399;54.146;38.734;2023-07-29T02:54:40;96571.75;;;17.50;100.00
72423;BME280;71399;54.146;38.734;2023-07-29T02:57:07;96564.88;;;17.49;100.00
72423;BME280;71399;54.146;38.734;2023-07-29T02:59:33;96559.38;;;17.42;100.00
72423;BME280;71399;54.146;38.734;2023-07-29T03:01:59;96570.56;;;17.48;100.00
72423;BME280;71399;54.146;38.734;2023-07-29T03:04:25;96568.66;;;17.48;100.00
72423;BME280;71399;54.146;38.734;2023-07-29T03:06:52;96570.22;;;17.49;100.00
72423;BME280;71399;54.146;38.734;2023-07-29T03:09:18;96548.38;;;17.44;100.00
72423;BME280;71399;54.146;38.734;2023-07-29T03:11:44;96562.56;;;17.48;100.00
72423;BME280;71399;54.146;38.734;2023-07-29T03:14:12;96589.97;;;17.48;100.00
72423;BME280;71399;54.146;38.734;2023-07-29T03:16:38;96588.06;;;17.49;100.00
72423;BME280;71399;54.146;38.734;2023-07-29T03:19:04;96589.97;;;17.48;100.00
72423;BME280;71399;54.146;38.734;2023-07-29T03:21:32;96586.94;;;17.50;100.00
72423;BME280;71399;54.146;38.734;2023-07-29T03:23:58;96567.03;;;17.44;100.00
72423;BME280;71399;54.146;38.734;2023-07-29T03:26:24;96574.41;;;17.50;100.00
72423;BME280;71399;54.146;38.734;2023-07-29T03:28:51;96592.53;;;17.45;100.00
72423;BME280;71399;54.146;38.734;2023-07-29T03:31:17;96597.88;;;17.45;100.00
72423;BME280;71399;54.146;38.734;2023-07-29T03:33:44;96616.94;;;17.47;100.00
72423;BME280;71399;54.146;38.734;2023-07-29T03:36:11;96633.25;;;17.45;100.00
72423;BME280;71399;54.146;38.734;2023-07-29T03:38:37;96608.44;;;17.41;100.00
72423;BME280;71399;54.146;38.734;2023-07-29T03:41:07;96610.75;;;17.43;100.00
72423;BME280;71399;54.146;38.734;2023-07-29T03:43:34;96614.53;;;17.41;100.00
72423;BME280;71399;54.146;38.734;2023-07-29T03:46:02;96632.75;;;17.39;100.00
72423;BME280;71399;54.146;38.734;2023-07-29T03:48:28;96645.72;;;17.41;100.00
72423;BME280;71399;54.146;38.734;2023-07-29T03:50:54;96648.63;;;17.36;100.00
72423;BME280;71399;54.146;38.734;2023-07-29T03:53:21;96663.22;;;17.42;100.00
72423;BME280;71399;54.146;38.734;2023-07-29T03:55:47;96682.72;;;17.46;100.00
72423;BME280;71399;54.146;38.734;2023-07-29T03:58:13;96693.03;;;17.48;100.00
72423;BME280;71399;54.146;38.734;2023-07-29T04:00:39;96679.28;;;17.46;100.00
72423;BME280;71399;54.146;38.734;2023-07-29T04:03:06;96705.31;;;17.52;100.00
72423;BME280;71399;54.146;38.734;2023-07-29T04:05:32;96717.50;;;17.53;100.00
72423;BME280;71399;54.146;38.734;2023-07-29T04:07:59;96713.66;;;17.51;100.00
72423;BME280;71399;54.146;38.734;2023-07-29T04:10:25;96718.78;;;17.44;100.00
72423;BME280;71399;54.146;38.734;2023-07-29T04:12:51;96709.69;;;17.45;100.00
72423;BME280;71399;54.146;38.734;2023-07-29T04:15:17;96706.00;;;17.49;100.00
72423;BME280;71399;54.146;38.734;2023-07-29T04:17:44;96710.41;;;17.57;100.00
72423;BME280;71399;54.146;38.734;2023-07-29T04:20:10;96715.38;;;17.59;100.00
72423;BME280;71399;54.146;38.734;2023-07-29T04:22:37;96729.81;;;17.58;100.00
72423;BME280;71399;54.146;38.734;2023-07-29T04:25:03;96764.69;;;17.53;100.00
72423;BME280;71399;54.146;38.734;2023-07-29T04:27:30;96778.59;;;17.62;100.00
72423;BME280;71399;54.146;38.734;2023-07-29T04:29:57;96796.22;;;17.51;100.00
72423;BME280;71399;54.146;38.734;2023-07-29T04:32:23;96804.72;;;17.56;100.00
72423;BME280;71399;54.146;38.734;2023-07-29T04:34:49;96770.88;;;17.57;100.00
72423;BME280;71399;54.146;38.734;2023-07-29T04:37:16;96777.75;;;17.58;100.00
72423;BME280;71399;54.146;38.734;2023-07-29T04:39:42;96785.06;;;17.61;100.00
72423;BME280;71399;54.146;38.734;2023-07-29T04:42:08;96788.16;;;17.63;100.00
72423;BME280;71399;54.146;38.734;2023-07-29T04:44:34;96791.84;;;17.58;100.00
72423;BME280;71399;54.146;38.734;2023-07-29T04:47:02;96820.13;;;17.63;100.00
72423;BME280;71399;54.146;38.734;2023-07-29T04:49:28;96828.88;;;17.64;100.00
72423;BME280;71399;54.146;38.734;2023-07-29T04:51:54;96817.13;;;17.65;100.00
72423;BME280;71399;54.146;38.734;2023-07-29T04:54:21;96822.78;;;17.63;100.00
72423;BME280;71399;54.146;38.734;2023-07-29T04:56:47;96822.00;;;17.63;100.00
72423;BME280;71399;54.146;38.734;2023-07-29T04:59:16;96831.19;;;17.65;100.00
72423;BME280;71399;54.146;38.734;2023-07-29T05:01:42;96829.78;;;17.55;100.00
72423;BME280;71399;54.146;38.734;2023-07-29T05:04:09;96857.66;;;17.58;100.00
72423;BME280;71399;54.146;38.734;2023-07-29T05:06:36;96853.34;;;17.53;100.00
72423;BME280;71399;54.146;38.734;2023-07-29T05:09:18;96841.03;;;17.49;100.00
72423;BME280;71399;54.146;38.734;2023-07-29T05:11:45;96850.00;;;17.56;100.00
72423;BME280;71399;54.146;38.734;2023-07-29T05:14:17;96829.78;;;17.55;100.00
72423;BME280;71399;54.146;38.734;2023-07-29T05:16:44;96832.66;;;17.63;100.00
72423;BME280;71399;54.146;38.734;2023-07-29T05:19:10;96841.09;;;17.65;100.00
72423;BME280;71399;54.146;38.734;2023-07-29T05:21:37;96858.97;;;17.64;100.00
72423;BME280;71399;54.146;38.734;2023-07-29T05:24:04;96865.63;;;17.58;100.00
72423;BME280;71399;54.146;38.734;2023-07-29T05:26:30;96884.28;;;17.58;100.00
72423;BME280;71399;54.146;38.734;2023-07-29T05:28:57;96875.53;;;17.57;100.00
72423;BME280;71399;54.146;38.734;2023-07-29T05:31:23;96889.28;;;17.59;100.00
72423;BME280;71399;54.146;38.734;2023-07-29T05:33:49;96890.38;;;17.58;100.00
72423;BME280;71399;54.146;38.734;2023-07-29T05:36:15;96892.69;;;17.60;100.00
72423;BME280;71399;54.146;38.734;2023-07-29T05:38:41;96896.38;;;17.55;100.00
72423;BME280;71399;54.146;38.734;2023-07-29T05:41:07;96895.19;;;17.53;100.00
72423;BME280;71399;54.146;38.734;2023-07-29T05:43:34;96899.59;;;17.61;100.00
72423;BME280;71399;54.146;38.734;2023-07-29T05:46:00;96906.78;;;17.60;100.00
72423;BME280;71399;54.146;38.734;2023-07-29T05:48:27;96912.13;;;17.60;100.00
72423;BME280;71399;54.146;38.734;2023-07-29T05:50:53;96900.34;;;17.62;100.00
72423;BME280;71399;54.146;38.734;2023-07-29T05:53:20;96893.72;;;17.55;100.00
72423;BME280;71399;54.146;38.734;2023-07-29T05:55:46;96899.94;;;17.59;100.00
72423;BME280;71399;54.146;38.734;2023-07-29T05:58:12;96893.03;;;17.58;100.00
72423;BME280;71399;54.146;38.734;2023-07-29T06:00:38;96895.28;;;17.56;100.00
72423;BME280;71399;54.146;38.734;2023-07-29T06:03:05;96898.28;;;17.55;100.00
72423;BME280;71399;54.146;38.734;2023-07-29T06:05:31;96910.81;;;17.54;100.00
72423;BME280;71399;54.146;38.734;2023-07-29T06:07:57;96909.69;;;17.55;100.00
72423;BME280;71399;54.146;38.734;2023-07-29T06:10:23;96914.34;;;17.58;100.00
72423;BME280;71399;54.146;38.734;2023-07-29T06:12:49;96909.56;;;17.64;100.00
72423;BME280;71399;54.146;38.734;2023-07-29T06:15:15;96907.25;;;17.63;100.00
72423;BME280;71399;54.146;38.734;2023-07-29T06:17:42;96919.88;;;17.66;100.00
72423;BME280;71399;54.146;38.734;2023-07-29T06:20:08;96940.50;;;17.69;100.00
72423;BME280;71399;54.146;38.734;2023-07-29T06:22:34;96924.34;;;17.62;100.00
72423;BME280;71399;54.146;38.734;2023-07-29T06:25:01;96951.41;;;17.64;100.00
72423;BME280;71399;54.146;38.734;2023-07-29T06:27:27;96931.00;;;17.55;100.00
72423;BME280;71399;54.146;38.734;2023-07-29T06:29:53;96938.41;;;17.62;100.00
72423;BME280;71399;54.146;38.734;2023-07-29T06:32:19;96945.97;;;17.60;100.00
72423;BME280;71399;54.146;38.734;2023-07-29T06:34:45;96956.63;;;17.60;100.00
72423;BME280;71399;54.146;38.734;2023-07-29T06:37:11;96967.19;;;17.56;100.00
72423;BME280;71399;54.146;38.734;2023-07-29T06:39:38;96969.31;;;17.51;100.00
72423;BME280;71399;54.146;38.734;2023-07-29T06:42:04;96962.09;;;17.51;100.00
72423;BME280;71399;54.146;38.734;2023-07-29T06:44:30;96969.09;;;17.44;100.00
72423;BME280;71399;54.146;38.734;2023-07-29T06:46:57;96980.31;;;17.49;100.00
72423;BME280;71399;54.146;38.734;2023-07-29T06:49:24;96969.09;;;17.44;100.00
72423;BME280;71399;54.146;38.734;2023-07-29T06:51:50;96981.84;;;17.50;100.00
72423;BME280;71399;54.146;38.734;2023-07-29T06:54:16;96989.28;;;17.45;100.00
72423;BME280;71399;54.146;38.734;2023-07-29T06:56:43;96998.38;;;17.44;100.00
72423;BME280;71399;54.146;38.734;2023-07-29T06:59:09;96994.03;;;17.39;100.00
72423;BME280;71399;54.146;38.734;2023-07-29T07:01:35;96993.06;;;17.31;100.00
72423;BME280;71399;54.146;38.734;2023-07-29T07:04:01;96984.66;;;17.29;100.00
72423;BME280;71399;54.146;38.734;2023-07-29T07:06:27;96969.91;;;17.19;100.00
72423;BME280;71399;54.146;38.734;2023-07-29T07:08:54;96987.19;;;17.26;100.00
72423;BME280;71399;54.146;38.734;2023-07-29T07:11:20;96974.66;;;17.26;100.00
72423;BME280;71399;54.146;38.734;2023-07-29T07:13:46;96958.59;;;17.22;100.00
72423;BME280;71399;54.146;38.734;2023-07-29T07:16:12;96939.72;;;17.15;100.00
72423;BME280;71399;54.146;38.734;2023-07-29T07:18:39;96944.72;;;17.17;100.00
72423;BME280;71399;54.146;38.734;2023-07-29T07:21:05;96931.31;;;17.13;100.00
72423;BME280;71399;54.146;38.734;2023-07-29T07:23:31;96921.75;;;17.12;100.00
72423;BME280;71399;54.146;38.734;2023-07-29T07:25:57;96908.13;;;17.14;100.00
72423;BME280;71399;54.146;38.734;2023-07-29T07:28:23;96900.47;;;17.12;100.00
72423;BME280;71399;54.146;38.734;2023-07-29T07:30:50;96890.84;;;17.08;100.00
72423;BME280;71399;54.146;38.734;2023-07-29T07:33:16;96896.72;;;17.13;100.00
72423;BME280;71399;54.146;38.734;2023-07-29T07:35:42;96897.03;;;17.12;100.00
72423;BME280;71399;54.146;38.734;2023-07-29T07:38:09;96904.06;;;17.04;100.00
72423;BME280;71399;54.146;38.734;2023-07-29T07:40:36;96909.25;;;17.00;100.00
72423;BME280;71399;54.146;38.734;2023-07-29T07:43:02;96915.69;;;16.99;100.00
72423;BME280;71399;54.146;38.734;2023-07-29T07:45:28;96921.78;;;17.00;100.00
72423;BME280;71399;54.146;38.734;2023-07-29T07:47:54;96910.69;;;16.98;100.00
72423;BME280;71399;54.146;38.734;2023-07-29T07:50:20;96910.56;;;17.07;100.00
72423;BME280;71399;54.146;38.734;2023-07-29T07:52:47;96918.66;;;17.10;100.00
72423;BME280;71399;54.146;38.734;2023-07-29T07:55:13;96927.97;;;17.16;100.00
72423;BME280;71399;54.146;38.734;2023-07-29T07:57:39;96921.31;;;17.22;100.00
72423;BME280;71399;54.146;38.734;2023-07-29T08:00:06;96928.06;;;17.20;100.00
72423;BME280;71399;54.146;38.734;2023-07-29T08:02:38;96945.38;;;17.26;100.00
72423;BME280;71399;54.146;38.734;2023-07-29T08:05:05;96951.13;;;17.28;100.00
72423;BME280;71399;54.146;38.734;2023-07-29T08:07:31;96951.34;;;17.35;100.00
72423;BME280;71399;54.146;38.734;2023-07-29T08:09:57;96964.09;;;17.42;100.00
72423;BME280;71399;54.146;38.734;2023-07-29T08:12:23;96961.19;;;17.47;100.00
72423;BME280;71399;54.146;38.734;2023-07-29T08:14:50;96958.19;;;17.49;100.00
72423;BME280;71399;54.146;38.734;2023-07-29T08:17:16;96951.66;;;17.46;100.00
72423;BME280;71399;54.146;38.734;2023-07-29T08:19:42;96929.94;;;17.32;100.00
72423;BME280;71399;54.146;38.734;2023-07-29T08:22:08;96936.59;;;17.38;100.00
72423;BME280;71399;54.146;38.734;2023-07-29T08:24:34;96932.28;;;17.33;100.00
72423;BME280;71399;54.146;38.734;2023-07-29T08:27:00;96936.84;;;17.33;100.00
72423;BME280;71399;54.146;38.734;2023-07-29T08:29:26;96935.06;;;17.25;100.00
72423;BME280;71399;54.146;38.734;2023-07-29T08:31:53;96954.25;;;17.30;100.00
72423;BME280;71399;54.146;38.734;2023-07-29T08:34:21;96957.13;;;17.25;100.00
72423;BME280;71399;54.146;38.734;2023-07-29T08:36:47;96960.22;;;17.27;100.00
72423;BME280;71399;54.146;38.734;2023-07-29T08:39:13;96967.88;;;17.29;100.00
72423;BME280;71399;54.146;38.734;2023-07-29T08:41:52;96955.38;;;17.29;100.00
72423;BME280;71399;54.146;38.734;2023-07-29T08:44:26;96946.94;;;17.15;100.00
72423;BME280;71399;54.146;38.734;2023-07-29T08:46:56;96947.16;;;17.22;100.00
72423;BME280;71399;54.146;38.734;2023-07-29T08:49:23;96954.03;;;17.23;100.00
72423;BME280;71399;54.146;38.734;2023-07-29T08:51:53;96946.59;;;17.29;100.00
72423;BME280;71399;54.146;38.734;2023-07-29T08:54:19;96938.72;;;17.20;100.00
72423;BME280;71399;54.146;38.734;2023-07-29T08:56:46;96948.16;;;17.17;100.00
72423;BME280;71399;54.146;38.734;2023-07-29T08:59:13;96945.16;;;17.19;100.00
72423;BME280;71399;54.146;38.734;2023-07-29T09:01:41;96947.47;;;17.20;100.00
72423;BME280;71399;54.146;38.734;2023-07-29T09:04:07;96931.31;;;17.13;100.00
72423;BME280;71399;54.146;38.734;2023-07-29T09:06:35;96925.31;;;17.16;100.00
72423;BME280;71399;54.146;38.734;2023-07-29T09:09:01;96929.97;;;17.19;100.00
72423;BME280;71399;54.146;38.734;2023-07-29T09:11:28;96911.81;;;17.09;100.00
72423;BME280;71399;54.146;38.734;2023-07-29T09:13:54;96933.88;;;17.10;100.00
72423;BME280;71399;54.146;38.734;2023-07-29T09:16:21;96939.75;;;17.03;100.00
72423;BME280;71399;54.146;38.734;2023-07-29T09:18:48;96944.41;;;17.06;100.00
72423;BME280;71399;54.146;38.734;2023-07-29T09:21:22;96927.22;;;17.03;100.00
72423;BME280;71399;54.146;38.734;2023-07-29T09:23:50;96930.78;;;17.08;100.00
72423;BME280;71399;54.146;38.734;2023-07-29T09:26:27;96930.53;;;17.13;100.00
72423;BME280;71399;54.146;38.734;2023-07-29T09:28:58;96924.09;;;17.14;100.00
72423;BME280;71399;54.146;38.734;2023-07-29T09:31:26;96919.00;;;17.21;100.00
72423;BME280;71399;54.146;38.734;2023-07-29T09:34:00;96928.63;;;17.26;100.00
72423;BME280;71399;54.146;38.734;2023-07-29T09:36:27;96955.03;;;17.31;100.00
72423;BME280;71399;54.146;38.734;2023-07-29T09:38:57;96959.66;;;17.34;100.00
72423;BME280;71399;54.146;38.734;2023-07-29T09:41:24;96978.19;;;17.43;100.00
72423;BME280;71399;54.146;38.734;2023-07-29T09:44:01;96974.50;;;17.47;100.00
72423;BME280;71399;54.146;38.734;2023-07-29T09:46:35;96975.63;;;17.46;100.00
72423;BME280;71399;54.146;38.734;2023-07-29T09:49:06;96972.50;;;17.56;100.00
72423;BME280;71399;54.146;38.734;2023-07-29T09:51:40;96959.38;;;17.76;100.00
72423;BME280;71399;54.146;38.734;2023-07-29T09:54:06;96966.88;;;17.86;100.00
72423;BME280;71399;54.146;38.734;2023-07-29T09:56:33;96957.31;;;17.85;100.00
72423;BME280;71399;54.146;38.734;2023-07-29T09:58:59;96975.22;;;17.85;100.00
72423;BME280;71399;54.146;38.734;2023-07-29T10:01:25;96976.22;;;17.80;100.00
72423;BME280;71399;54.146;38.734;2023-07-29T10:03:52;96976.56;;;17.78;100.00
72423;BME280;71399;54.146;38.734;2023-07-29T10:06:19;96980.25;;;17.62;100.00
72423;BME280;71399;54.146;38.734;2023-07-29T10:08:47;96988.50;;;17.56;100.00
72423;BME280;71399;54.146;38.734;2023-07-29T10:11:15;96979.59;;;17.52;100.00
72423;BME280;71399;54.146;38.734;2023-07-29T10:13:42;96980.31;;;17.49;100.00
72423;BME280;71399;54.146;38.734;2023-07-29T10:16:09;96972.94;;;17.58;100.00
72423;BME280;71399;54.146;38.734;2023-07-29T10:18:36;96968.84;;;17.61;100.00
72423;BME280;71399;54.146;38.734;2023-07-29T10:21:02;96978.94;;;17.55;100.00
72423;BME280;71399;54.146;38.734;2023-07-29T10:23:34;97000.38;;;17.47;100.00
72423;BME280;71399;54.146;38.734;2023-07-29T10:26:06;96990.06;;;17.45;100.00
72423;BME280;71399;54.146;38.734;2023-07-29T10:28:40;96984.06;;;17.48;100.00
72423;BME280;71399;54.146;38.734;2023-07-29T10:31:07;96975.22;;;17.44;100.00
72423;BME280;71399;54.146;38.734;2023-07-29T10:33:34;96974.75;;;17.42;100.00
72423;BME280;71399;54.146;38.734;2023-07-29T10:36:01;96998.16;;;17.49;100.00
72423;BME280;71399;54.146;38.734;2023-07-29T10:38:28;96992.63;;;17.41;100.00
72423;BME280;71399;54.146;38.734;2023-07-29T10:40:56;96996.59;;;17.48;100.00
72423;BME280;71399;54.146;38.734;2023-07-29T10:43:32;97007.59;;;17.46;100.00
72423;BME280;71399;54.146;38.734;2023-07-29T10:46:19;97008.63;;;17.29;100.00
72423;BME280;71399;54.146;38.734;2023-07-29T10:48:53;97028.25;;;17.25;100.00
72423;BME280;71399;54.146;38.734;2023-07-29T10:51:34;97043.09;;;17.13;100.00
72423;BME280;71399;54.146;38.734;2023-07-29T10:54:10;97055.31;;;17.14;100.00
72423;BME280;71399;54.146;38.734;2023-07-29T10:56:40;97057.50;;;17.12;100.00
72423;BME280;71399;54.146;38.734;2023-07-29T11:01:50;97071.16;;;17.11;100.00
72423;BME280;71399;54.146;38.734;2023-07-29T11:12:38;97069.59;;;17.10;100.00
72423;BME280;71399;54.146;38.734;2023-07-29T11:17:51;97071.13;;;16.98;100.00
72423;BME280;71399;54.146;38.734;2023-07-29T11:20:19;97061.13;;;16.95;100.00
72423;BME280;71399;54.146;38.734;2023-07-29T11:22:46;97026.88;;;16.94;100.00
72423;BME280;71399;54.146;38.734;2023-07-29T11:25:14;97013.72;;;16.97;100.00
72423;BME280;71399;54.146;38.734;2023-07-29T11:27:41;97007.25;;;16.98;100.00
72423;BME280;71399;54.146;38.734;2023-07-29T11:30:09;96996.50;;;16.95;100.00
72423;BME280;71399;54.146;38.734;2023-07-29T11:32:37;97023.13;;;16.95;100.00
72423;BME280;71399;54.146;38.734;2023-07-29T11:35:11;97035.53;;;16.91;100.00
72423;BME280;71399;54.146;38.734;2023-07-29T11:37:44;97027.88;;;16.89;100.00
72423;BME280;71399;54.146;38.734;2023-07-29T11:40:22;97018.34;;;16.88;100.00
72423;BME280;71399;54.146;38.734;2023-07-29T11:42:50;97009.13;;;16.85;100.00
72423;BME280;71399;54.146;38.734;2023-07-29T11:45:18;97001.13;;;16.85;100.00
72423;BME280;71399;54.146;38.734;2023-07-29T11:47:44;96986.75;;;16.87;100.00
72423;BME280;71399;54.146;38.734;2023-07-29T11:50:12;96985.97;;;16.86;100.00
72423;BME280;71399;54.146;38.734;2023-07-29T11:52:43;96984.84;;;16.87;100.00
72423;BME280;71399;54.146;38.734;2023-07-29T11:55:09;96988.84;;;16.93;100.00
72423;BME280;71399;54.146;38.734;2023-07-29T11:57:37;96984.31;;;16.94;100.00
72423;BME280;71399;54.146;38.734;2023-07-29T12:00:05;96980.31;;;17.00;100.00
72423;BME280;71399;54.146;38.734;2023-07-29T12:02:40;96963.25;;;17.01;100.00
72423;BME280;71399;54.146;38.734;2023-07-29T12:05:09;96958.81;;;17.05;100.00
72423;BME280;71399;54.146;38.734;2023-07-29T12:07:36;96950.28;;;16.99;100.00
72423;BME280;71399;54.146;38.734;2023-07-29T12:10:04;96954.03;;;16.98;100.00
72423;BME280;71399;54.146;38.734;2023-07-29T12:12:31;96948.63;;;16.95;100.00
72423;BME280;71399;54.146;38.734;2023-07-29T12:14:57;96950.72;;;16.89;100.00
72423;BME280;71399;54.146;38.734;2023-07-29T12:17:24;96951.38;;;16.86;100.00
72423;BME280;71399;54.146;38.734;2023-07-29T12:19:54;96944.03;;;16.83;100.00
72423;BME280;71399;54.146;38.734;2023-07-29T12:22:21;96941.28;;;16.79;100.00
72423;BME280;71399;54.146;38.734;2023-07-29T12:24:48;96960.78;;;16.83;100.00
72423;BME280;71399;54.146;38.734;2023-07-29T12:27:16;96954.47;;;16.76;100.00
72423;BME280;71399;54.146;38.734;2023-07-29T12:29:43;96965.53;;;16.78;100.00
72423;BME280;71399;54.146;38.734;2023-07-29T12:32:10;96966.53;;;16.73;100.00
72423;BME280;71399;54.146;38.734;2023-07-29T12:34:38;96957.78;;;16.73;100.00
72423;BME280;71399;54.146;38.734;2023-07-29T12:37:06;96935.84;;;16.76;100.00
72423;BME280;71399;54.146;38.734;2023-07-29T12:39:35;96930.38;;;16.72;100.00
72423;BME280;71399;54.146;38.734;2023-07-29T12:42:02;96935.94;;;16.79;100.00
72423;BME280;71399;54.146;38.734;2023-07-29T12:44:31;96928.41;;;16.81;100.00
72423;BME280;71399;54.146;38.734;2023-07-29T12:47:00;96923.63;;;16.75;100.00
72423;BME280;71399;54.146;38.734;2023-07-29T12:49:27;96945.34;;;16.77;100.00
72423;BME280;71399;54.146;38.734;2023-07-29T12:51:54;96941.25;;;16.67;100.00
72423;BME280;71399;54.146;38.734;2023-07-29T12:54:20;96945.25;;;16.73;100.00
72423;BME280;71399;54.146;38.734;2023-07-29T12:56:46;96932.94;;;16.68;100.00
72423;BME280;71399;54.146;38.734;2023-07-29T12:59:12;96953.34;;;16.64;100.00
72423;BME280;71399;54.146;38.734;2023-07-29T13:01:38;96968.84;;;16.62;100.00